createdAt,value
2023-02-07T00:00:32.811Z,79.39
2023-02-07T00:03:00.429Z,79.25
2023-02-07T00:05:28.053Z,79.08
2023-02-07T00:07:55.763Z,79.10
2023-02-07T00:10:23.230Z,79.11
2023-02-07T00:12:51.607Z,79.28
2023-02-07T00:15:18.565Z,79.01
2023-02-07T00:17:45.444Z,78.37
2023-02-07T00:24:32.701Z,78.14
2023-02-07T00:27:03.093Z,78.28
2023-02-07T00:29:35.123Z,78.41
2023-02-07T00:32:02.192Z,78.01
2023-02-07T00:34:29.105Z,77.83
2023-02-07T00:39:39.657Z,77.98
2023-02-07T00:42:06.435Z,77.92
2023-02-07T00:44:33.353Z,77.88
2023-02-07T00:47:00.196Z,77.78
2023-02-07T00:49:32.999Z,77.90
2023-02-07T00:52:01.090Z,77.89
2023-02-07T00:54:27.904Z,78.05
2023-02-07T00:56:55.396Z,78.21
2023-02-07T00:59:22.461Z,78.09
2023-02-07T01:01:49.272Z,78.05
2023-02-07T01:04:16.602Z,78.14
2023-02-07T01:09:32.729Z,77.92
2023-02-07T01:12:02.046Z,77.74
2023-02-07T01:14:30.308Z,77.70
2023-02-07T01:16:57.166Z,77.60
2023-02-07T01:19:23.958Z,77.20
2023-02-07T01:21:50.824Z,77.08
2023-02-07T01:24:18.122Z,77.15
2023-02-07T01:26:45.934Z,77.14
2023-02-07T01:29:40.370Z,77.08
2023-02-07T01:32:07.175Z,77.00
2023-02-07T01:34:34.145Z,77.17
2023-02-07T01:37:01.021Z,76.97
2023-02-07T01:39:29.372Z,77.11
2023-02-07T01:41:56.200Z,76.73
2023-02-07T01:44:23.427Z,76.95
2023-02-07T01:46:50.949Z,76.97
2023-02-07T01:49:27.027Z,77.32
2023-02-07T01:52:06.621Z,77.37
2023-02-07T01:54:34.163Z,77.40
2023-02-07T01:57:03.778Z,77.46
2023-02-07T01:59:36.871Z,77.41
2023-02-07T02:02:04.886Z,76.87
2023-02-07T02:04:31.844Z,76.87
2023-02-07T02:06:58.711Z,76.78
2023-02-07T02:09:27.277Z,76.75
2023-02-07T02:12:16.446Z,76.86
2023-02-07T02:14:55.862Z,76.80
2023-02-07T02:17:35.197Z,76.95
2023-02-07T02:23:42.016Z,76.82
2023-02-07T02:26:08.752Z,76.71
2023-02-07T02:28:55.654Z,76.55
2023-02-07T02:31:31.269Z,76.46
2023-02-07T02:34:09.440Z,76.25
2023-02-07T02:36:48.374Z,76.40
2023-02-07T02:39:18.246Z,76.43
2023-02-07T02:41:49.879Z,76.23
2023-02-07T02:44:22.706Z,76.16
2023-02-07T02:46:49.547Z,76.08
2023-02-07T02:49:16.451Z,76.17
2023-02-07T02:51:43.421Z,76.07
2023-02-07T02:54:29.320Z,76.03
2023-02-07T02:57:15.929Z,76.11
2023-02-07T02:59:48.810Z,75.74
2023-02-07T03:02:24.411Z,75.63
2023-02-07T03:05:02.288Z,75.53
2023-02-07T03:07:34.885Z,75.47
2023-02-07T03:10:06.207Z,75.33
2023-02-07T03:12:35.161Z,75.22
2023-02-07T03:15:11.632Z,75.07
2023-02-07T03:17:38.501Z,75.16
2023-02-07T03:23:04.967Z,75.00
2023-02-07T03:25:32.757Z,74.98
2023-02-07T03:28:00.378Z,74.90
2023-02-07T03:30:28.516Z,75.02
2023-02-07T03:32:58.278Z,75.03
2023-02-07T03:35:26.326Z,75.03
2023-02-07T03:37:57.101Z,74.89
2023-02-07T03:40:51.371Z,74.70
2023-02-07T03:43:25.072Z,74.94
2023-02-07T03:45:52.178Z,75.06
2023-02-07T03:48:19.464Z,75.02
2023-02-07T03:50:47.807Z,74.98
2023-02-07T03:53:14.781Z,74.97
2023-02-07T03:55:41.667Z,74.66
2023-02-07T03:58:08.733Z,74.56
2023-02-07T04:01:01.833Z,74.98
2023-02-07T04:03:30.296Z,75.42
2023-02-07T04:05:57.483Z,75.36
2023-02-07T04:08:24.572Z,75.56
2023-02-07T04:10:58.724Z,75.62
2023-02-07T04:13:25.949Z,74.69
2023-02-07T04:15:52.906Z,74.27
2023-02-07T04:18:20.041Z,74.33
2023-02-07T04:20:47.932Z,74.42
2023-02-07T04:23:16.446Z,74.55
2023-02-07T04:25:43.200Z,74.88
2023-02-07T04:28:10.221Z,74.85
2023-02-07T04:30:37.225Z,74.77
2023-02-07T04:33:04.221Z,75.05
2023-02-07T04:35:31.185Z,75.21
2023-02-07T04:37:58.843Z,75.24
2023-02-07T04:40:26.079Z,74.44
2023-02-07T04:42:53.610Z,74.36
2023-02-07T04:45:20.449Z,74.32
2023-02-07T04:47:47.212Z,74.06
2023-02-07T04:50:14.366Z,73.81
2023-02-07T04:52:41.669Z,73.60
2023-02-07T04:55:18.992Z,73.77
2023-02-07T04:57:55.923Z,73.79
2023-02-07T05:00:23.006Z,74.07
2023-02-07T05:02:49.864Z,74.04
2023-02-07T05:05:16.873Z,74.44
2023-02-07T05:07:46.806Z,74.00
2023-02-07T05:10:17.038Z,74.03
2023-02-07T05:12:47.287Z,74.14
2023-02-07T05:15:16.628Z,74.50
2023-02-07T05:17:43.665Z,74.87
2023-02-07T05:20:12.416Z,74.97
2023-02-07T05:22:40.028Z,75.17
2023-02-07T05:25:08.878Z,74.71
2023-02-07T05:27:38.467Z,74.83
2023-02-07T05:30:09.252Z,74.59
2023-02-07T05:32:59.837Z,74.78
2023-02-07T05:35:26.943Z,75.13
2023-02-07T05:38:01.481Z,75.38
2023-02-07T05:40:28.570Z,75.45
2023-02-07T05:42:55.553Z,75.49
2023-02-07T05:45:23.917Z,75.57
2023-02-07T05:47:50.820Z,75.76
2023-02-07T05:50:17.777Z,75.28
2023-02-07T05:52:45.055Z,75.03
2023-02-07T05:55:13.320Z,75.08
2023-02-07T05:57:41.019Z,75.29
2023-02-07T06:00:10.318Z,75.32
2023-02-07T06:02:40.764Z,75.37
2023-02-07T06:05:10.412Z,75.03
2023-02-07T06:07:37.563Z,75.06
2023-02-07T06:10:05.863Z,74.44
2023-02-07T06:12:33.193Z,74.38
2023-02-07T06:15:01.490Z,74.45
2023-02-07T06:17:31.275Z,73.86
2023-02-07T06:19:59.677Z,73.51
2023-02-07T06:22:26.904Z,73.42
2023-02-07T06:24:55.100Z,73.10
2023-02-07T06:27:22.033Z,73.44
2023-02-07T06:29:48.864Z,73.37
2023-02-07T06:32:15.702Z,73.26
2023-02-07T06:34:42.705Z,72.77
2023-02-07T06:40:15.083Z,72.75
2023-02-07T06:42:41.888Z,72.33
2023-02-07T06:45:08.900Z,72.25
2023-02-07T06:47:35.822Z,72.48
2023-02-07T06:50:02.717Z,72.40
2023-02-07T06:52:29.549Z,72.61
2023-02-07T06:54:56.327Z,73.06
2023-02-07T06:57:23.144Z,73.05
2023-02-07T07:00:15.044Z,72.99
2023-02-07T07:02:42.566Z,72.28
2023-02-07T07:07:51.814Z,71.98
2023-02-07T07:10:18.815Z,71.89
2023-02-07T07:12:46.707Z,71.29
2023-02-07T07:15:13.641Z,71.48
2023-02-07T07:17:40.454Z,71.56
2023-02-07T07:24:33.303Z,69.67
2023-02-07T07:27:00.251Z,69.68
2023-02-07T07:29:27.034Z,70.12
2023-02-07T07:31:53.857Z,70.03
2023-02-07T07:34:20.711Z,69.99
2023-02-07T07:36:48.390Z,69.56
2023-02-07T07:39:17.200Z,69.65
2023-02-07T07:41:44.135Z,69.81
2023-02-07T07:44:21.850Z,69.70
2023-02-07T07:46:51.181Z,69.07
2023-02-07T07:49:17.977Z,68.90
2023-02-07T07:51:44.796Z,68.64
2023-02-07T07:54:11.689Z,68.23
2023-02-07T07:56:38.523Z,68.22
2023-02-07T07:59:08.776Z,68.31
2023-02-07T08:01:40.192Z,68.17
2023-02-07T08:04:07.045Z,67.99
2023-02-07T08:06:33.986Z,68.38
2023-02-07T08:11:53.795Z,68.00
2023-02-07T08:14:21.391Z,67.77
2023-02-07T08:22:40.850Z,68.06
2023-02-07T08:25:08.047Z,67.62
2023-02-07T08:27:35.770Z,67.38
2023-02-07T08:30:03.290Z,67.23
2023-02-07T08:32:30.360Z,66.60
2023-02-07T08:34:57.195Z,66.46
2023-02-07T08:37:24.013Z,66.00
2023-02-07T08:39:53.060Z,65.74
2023-02-07T08:45:31.377Z,64.92
2023-02-07T08:50:48.530Z,64.87
2023-02-07T08:53:15.365Z,65.10
2023-02-07T08:55:42.590Z,64.66
2023-02-07T08:58:09.484Z,63.68
2023-02-07T09:04:53.408Z,64.34
2023-02-07T09:07:20.836Z,63.96
2023-02-07T09:09:47.662Z,63.51
2023-02-07T09:12:14.451Z,64.04
2023-02-07T09:20:40.395Z,64.04
2023-02-07T09:23:19.575Z,63.46
2023-02-07T09:25:50.241Z,62.90
2023-02-07T09:28:17.866Z,62.52
2023-02-07T09:30:45.439Z,62.90
2023-02-07T09:33:12.586Z,63.19
2023-02-07T09:35:39.637Z,62.39
2023-02-07T09:38:07.222Z,62.35
2023-02-07T09:40:34.531Z,62.48
2023-02-07T09:43:20.313Z,63.05
2023-02-07T09:45:48.556Z,63.62
2023-02-07T09:48:18.095Z,63.63
2023-02-07T09:50:54.298Z,63.23
2023-02-07T09:53:41.539Z,63.45
2023-02-07T09:56:09.257Z,63.62
2023-02-07T09:58:43.738Z,63.33
2023-02-07T10:01:10.904Z,63.21
2023-02-07T10:03:38.805Z,63.22
2023-02-07T10:06:18.873Z,63.25
2023-02-07T10:08:46.852Z,63.41
2023-02-07T10:11:39.050Z,63.07
2023-02-07T10:14:12.705Z,62.43
2023-02-07T10:16:57.839Z,62.64
2023-02-07T10:19:44.191Z,62.88
2023-02-07T10:22:28.003Z,62.85
2023-02-07T10:25:08.044Z,63.01
2023-02-07T10:27:44.003Z,63.00
2023-02-07T10:30:36.290Z,63.60
2023-02-07T10:33:05.414Z,63.48
2023-02-07T10:35:33.840Z,64.00
2023-02-07T10:43:32.732Z,63.72
2023-02-07T10:46:06.545Z,63.72
2023-02-07T10:48:53.517Z,64.04
2023-02-07T10:51:50.183Z,63.10
2023-02-07T10:54:20.383Z,63.00
2023-02-07T10:56:50.751Z,63.33
2023-02-07T10:59:39.632Z,63.15
2023-02-07T11:02:25.380Z,63.53
2023-02-07T11:04:55.972Z,63.62
2023-02-07T11:07:25.374Z,63.60
2023-02-07T11:09:52.657Z,63.40
2023-02-07T11:12:20.683Z,63.47
2023-02-07T11:15:08.300Z,63.32
2023-02-07T11:17:35.427Z,63.85
2023-02-07T11:20:07.798Z,64.07
2023-02-07T11:22:34.927Z,64.17
2023-02-07T11:27:44.261Z,63.92
2023-02-07T11:30:17.935Z,63.97
2023-02-07T11:32:44.844Z,63.83
2023-02-07T11:35:18.178Z,63.85
2023-02-07T11:37:49.412Z,63.68
2023-02-07T11:40:19.196Z,63.62
2023-02-07T11:42:52.357Z,63.81
2023-02-07T11:45:21.785Z,63.69
2023-02-07T11:47:48.895Z,63.95
2023-02-07T11:50:20.939Z,64.15
2023-02-07T11:52:58.301Z,64.22
2023-02-07T11:58:23.060Z,64.32
2023-02-07T12:00:50.939Z,64.55
2023-02-07T12:03:21.172Z,63.97
2023-02-07T12:05:55.801Z,64.01
2023-02-07T12:08:24.379Z,64.03
2023-02-07T12:11:08.715Z,64.16
2023-02-07T12:13:36.054Z,64.21
2023-02-07T12:16:04.538Z,64.42
2023-02-07T12:18:34.818Z,63.80
2023-02-07T12:21:01.658Z,64.01
2023-02-07T12:23:44.720Z,64.13
2023-02-07T12:26:15.063Z,64.30
2023-02-07T12:29:14.709Z,64.50
2023-02-07T12:31:42.750Z,64.27
2023-02-07T12:34:14.726Z,64.55
2023-02-07T12:36:42.787Z,64.69
2023-02-07T12:39:09.595Z,64.86
2023-02-07T12:41:47.013Z,65.19
2023-02-07T12:44:23.871Z,65.18
2023-02-07T12:46:56.448Z,65.02
2023-02-07T12:49:42.211Z,65.14
2023-02-07T12:52:09.181Z,65.25
2023-02-07T12:54:54.484Z,65.40
2023-02-07T12:57:26.853Z,65.07
2023-02-07T12:59:56.309Z,65.15
2023-02-07T13:02:49.850Z,65.42
2023-02-07T13:05:25.243Z,65.18
2023-02-07T13:07:54.193Z,65.31
2023-02-07T13:10:27.506Z,65.79
2023-02-07T13:13:12.709Z,65.56
2023-02-07T13:16:07.941Z,65.44
2023-02-07T13:18:54.935Z,65.48
2023-02-07T13:21:46.492Z,65.80
2023-02-07T13:24:42.068Z,65.69
2023-02-07T13:27:11.899Z,65.92
2023-02-07T13:29:39.218Z,65.75
2023-02-07T13:32:12.522Z,65.67
2023-02-07T13:34:48.712Z,65.93
2023-02-07T13:37:17.299Z,66.34
2023-02-07T13:39:47.181Z,66.43
2023-02-07T13:42:32.935Z,66.25
2023-02-07T13:45:02.315Z,66.23
2023-02-07T13:47:37.229Z,66.22
2023-02-07T13:50:30.178Z,66.50
2023-02-07T13:53:04.076Z,66.66
2023-02-07T13:55:33.012Z,67.01
2023-02-07T13:58:18.317Z,66.94
2023-02-07T14:00:57.769Z,66.82
2023-02-07T14:03:31.727Z,67.00
2023-02-07T14:06:15.885Z,67.42
2023-02-07T14:08:45.060Z,67.62
2023-02-07T14:11:36.710Z,68.00
2023-02-07T14:14:15.552Z,68.11
2023-02-07T14:16:44.889Z,68.04
2023-02-07T14:19:12.660Z,68.17
2023-02-07T14:22:04.632Z,68.28
2023-02-07T14:24:45.027Z,68.05
2023-02-07T14:27:33.084Z,68.39
2023-02-07T14:30:00.034Z,68.32
2023-02-07T14:32:26.790Z,68.52
2023-02-07T14:35:06.776Z,68.64
2023-02-07T14:37:41.024Z,68.96
2023-02-07T14:40:33.190Z,69.07
2023-02-07T14:43:00.640Z,69.07
2023-02-07T14:45:31.570Z,69.04
2023-02-07T14:47:58.477Z,69.27
2023-02-07T14:50:30.622Z,69.26
2023-02-07T14:56:01.485Z,69.61
2023-02-07T14:58:33.315Z,69.58
2023-02-07T15:01:00.756Z,69.68
2023-02-07T15:06:32.768Z,69.42
2023-02-07T15:11:54.013Z,69.78
2023-02-07T15:14:32.344Z,69.82
2023-02-07T15:17:10.443Z,70.12
2023-02-07T15:19:40.517Z,70.54
2023-02-07T15:22:20.373Z,70.39
2023-02-07T15:24:52.294Z,70.31
2023-02-07T15:27:34.633Z,70.42
2023-02-07T15:30:12.986Z,70.71
2023-02-07T15:32:56.423Z,70.26
2023-02-07T15:35:29.144Z,70.18
2023-02-07T15:38:13.038Z,70.26
2023-02-07T15:41:08.043Z,70.38
2023-02-07T15:43:35.458Z,70.37
2023-02-07T15:46:03.925Z,70.20
2023-02-07T15:48:31.129Z,70.33
2023-02-07T15:51:00.691Z,70.37
2023-02-07T15:53:28.901Z,70.32
2023-02-07T15:55:55.857Z,70.40
2023-02-07T15:58:34.648Z,70.31
2023-02-07T16:01:02.404Z,70.36
2023-02-07T16:03:31.620Z,70.27
2023-02-07T16:06:02.661Z,70.60
2023-02-07T16:08:33.520Z,70.83
2023-02-07T16:11:19.212Z,70.87
2023-02-07T16:13:55.949Z,70.87
2023-02-07T16:16:26.814Z,70.83
2023-02-07T16:19:07.465Z,71.00
2023-02-07T16:21:36.067Z,71.16
2023-02-07T16:24:08.066Z,70.91
2023-02-07T16:26:35.153Z,71.10
2023-02-07T16:29:01.970Z,70.80
2023-02-07T16:31:29.004Z,70.91
2023-02-07T16:33:57.489Z,70.66
2023-02-07T16:36:25.670Z,71.10
2023-02-07T16:38:54.041Z,71.39
2023-02-07T16:41:22.872Z,71.10
2023-02-07T16:43:50.082Z,71.35
2023-02-07T16:46:17.353Z,71.61
2023-02-07T16:48:44.284Z,71.98
2023-02-07T16:51:17.054Z,72.03
2023-02-07T16:54:09.526Z,72.04
2023-02-07T16:56:36.450Z,72.11
2023-02-07T16:59:04.198Z,72.28
2023-02-07T17:01:33.848Z,72.47
2023-02-07T17:04:02.456Z,72.53
2023-02-07T17:06:31.344Z,72.64
2023-02-07T17:08:58.271Z,72.86
2023-02-07T17:11:31.660Z,72.63
2023-02-07T17:13:58.893Z,72.84
2023-02-07T17:16:27.203Z,72.91
2023-02-07T17:18:54.248Z,72.86
2023-02-07T17:21:23.011Z,73.13
2023-02-07T17:23:50.078Z,72.95
2023-02-07T17:26:25.645Z,72.97
2023-02-07T17:35:12.347Z,74.22
2023-02-07T17:43:36.005Z,74.57
2023-02-07T17:49:06.894Z,74.81
2023-02-07T17:51:59.874Z,74.81
2023-02-07T17:54:27.184Z,74.82
2023-02-07T17:56:55.742Z,74.87
2023-02-07T18:02:22.818Z,75.11
2023-02-07T18:04:51.666Z,75.41
2023-02-07T18:07:18.593Z,75.48
2023-02-07T18:09:45.447Z,75.43
2023-02-07T18:12:13.932Z,75.24
2023-02-07T18:14:43.394Z,75.08
2023-02-07T18:17:10.429Z,74.95
2023-02-07T18:20:04.073Z,75.13
2023-02-07T18:22:32.268Z,74.76
2023-02-07T18:25:00.546Z,74.70
2023-02-07T18:27:29.490Z,74.76
2023-02-07T18:29:57.387Z,74.76
2023-02-07T18:32:24.817Z,75.07
2023-02-07T18:34:51.657Z,75.13
2023-02-07T18:37:18.629Z,74.97
2023-02-07T18:39:45.449Z,74.67
2023-02-07T18:42:14.523Z,74.70
2023-02-07T18:44:41.725Z,74.87
2023-02-07T18:49:51.200Z,75.27
2023-02-07T18:52:19.791Z,75.23
2023-02-07T18:54:47.381Z,74.94
2023-02-07T18:57:15.081Z,74.97
2023-02-07T18:59:42.187Z,75.02
2023-02-07T19:02:10.487Z,74.90
2023-02-07T19:04:37.452Z,74.69
2023-02-07T19:07:06.345Z,74.69
2023-02-07T19:09:34.006Z,74.36
2023-02-07T19:12:01.110Z,74.47
2023-02-07T19:14:39.269Z,74.91
2023-02-07T19:17:17.748Z,74.38
2023-02-07T19:19:44.610Z,74.43
2023-02-07T19:22:11.486Z,74.24
2023-02-07T19:24:38.747Z,74.24
2023-02-07T19:27:07.309Z,74.36
2023-02-07T19:29:39.864Z,74.09
2023-02-07T19:32:08.423Z,74.36
2023-02-07T19:34:35.831Z,74.56
2023-02-07T19:37:02.985Z,74.69
2023-02-07T19:39:40.650Z,74.88
2023-02-07T19:42:07.528Z,74.53
2023-02-07T19:44:34.317Z,74.46
2023-02-07T19:47:01.111Z,74.46
2023-02-07T19:49:30.285Z,74.34
2023-02-07T19:51:57.447Z,74.50
2023-02-07T19:54:25.456Z,74.61
2023-02-07T19:56:53.025Z,74.49
2023-02-07T19:59:20.099Z,74.64
2023-02-07T20:01:49.165Z,74.37
2023-02-07T20:04:16.353Z,74.70
2023-02-07T20:06:43.266Z,74.30
2023-02-07T20:09:10.072Z,74.38
2023-02-07T20:11:37.002Z,74.40
2023-02-07T20:14:04.275Z,74.40
2023-02-07T20:16:32.587Z,74.00
2023-02-07T20:18:59.612Z,74.19
2023-02-07T20:21:51.419Z,74.05
2023-02-07T20:24:18.403Z,74.04
2023-02-07T20:26:51.493Z,74.13
2023-02-07T20:29:19.050Z,74.26
2023-02-07T20:31:46.510Z,74.39
2023-02-07T20:36:56.661Z,74.14
2023-02-07T20:39:23.834Z,74.06
2023-02-07T20:41:56.492Z,73.98
2023-02-07T20:44:24.876Z,74.49
2023-02-07T20:46:51.884Z,74.48
2023-02-07T20:49:20.125Z,74.67
2023-02-07T20:51:50.786Z,74.63
2023-02-07T20:54:18.152Z,74.87
2023-02-07T20:56:45.042Z,75.04
2023-02-07T20:59:19.762Z,74.88
2023-02-07T21:01:46.929Z,74.85
2023-02-07T21:04:14.027Z,74.46
2023-02-07T21:06:42.949Z,74.40
2023-02-07T21:09:10.213Z,74.32
2023-02-07T21:14:33.516Z,74.19
2023-02-07T21:17:01.741Z,74.46
2023-02-07T21:19:28.817Z,74.56
2023-02-07T21:21:55.903Z,74.41
2023-02-07T21:24:23.017Z,74.10
2023-02-07T21:26:50.902Z,73.93
2023-02-07T21:29:18.228Z,73.95
2023-02-07T21:31:45.666Z,74.13
2023-02-07T21:34:13.339Z,74.35
2023-02-07T21:36:40.154Z,74.22
2023-02-07T21:39:30.276Z,74.41
2023-02-07T21:41:59.255Z,74.54
2023-02-07T21:44:26.339Z,74.46
2023-02-07T21:46:53.202Z,74.57
2023-02-07T21:49:21.166Z,74.87
2023-02-07T21:51:49.817Z,75.14
2023-02-07T21:54:17.029Z,74.93
2023-02-07T21:56:45.021Z,75.02
2023-02-07T21:59:12.883Z,74.75
2023-02-07T22:01:45.274Z,74.56
2023-02-07T22:04:12.405Z,74.60
2023-02-07T22:06:42.181Z,74.91
2023-02-07T22:09:10.608Z,74.76
2023-02-07T22:11:37.386Z,74.59
2023-02-07T22:14:04.411Z,74.44
2023-02-07T22:16:31.388Z,74.71
2023-02-07T22:19:01.144Z,74.83
2023-02-07T22:21:29.809Z,74.69
2023-02-07T22:23:56.950Z,74.68
2023-02-07T22:26:24.046Z,74.69
2023-02-07T22:28:51.066Z,74.87
2023-02-07T22:31:19.566Z,75.04
2023-02-07T22:33:46.879Z,74.67
2023-02-07T22:36:14.379Z,74.51
2023-02-07T22:38:41.233Z,74.33
2023-02-07T22:41:08.495Z,74.54
2023-02-07T22:43:35.508Z,74.72
2023-02-07T22:46:03.172Z,74.91
2023-02-07T22:48:30.191Z,74.93
2023-02-07T22:50:56.976Z,75.08
2023-02-07T22:53:23.999Z,75.17
2023-02-07T22:55:50.785Z,74.92
2023-02-07T22:58:17.575Z,75.08
2023-02-07T23:00:44.343Z,75.01
2023-02-07T23:03:11.119Z,75.28
2023-02-07T23:05:39.078Z,75.03
2023-02-07T23:08:07.444Z,74.27
2023-02-07T23:10:34.432Z,74.50
2023-02-07T23:13:01.573Z,75.06
2023-02-07T23:15:28.423Z,75.09
2023-02-07T23:17:55.164Z,75.15
2023-02-07T23:20:21.872Z,74.72
2023-02-07T23:22:48.657Z,74.55
2023-02-07T23:25:16.214Z,74.59
2023-02-07T23:27:44.060Z,74.82
2023-02-07T23:30:11.832Z,74.95
2023-02-07T23:32:38.959Z,74.97
2023-02-07T23:35:05.944Z,75.11
2023-02-07T23:37:32.794Z,75.39
2023-02-07T23:39:59.670Z,75.25
2023-02-07T23:42:26.479Z,75.06
2023-02-07T23:44:53.579Z,74.85
2023-02-07T23:47:20.536Z,75.09
2023-02-07T23:49:47.265Z,75.41
2023-02-07T23:52:14.099Z,75.78
2023-02-07T23:54:40.889Z,75.63
2023-02-07T23:57:07.717Z,75.70
2023-02-07T23:59:35.023Z,75.61
